createdAt,value
2017-05-07T00:00:38.569Z,101468.23
2017-05-07T00:03:04.459Z,101463.21
2017-05-07T00:05:30.364Z,101467.03
2017-05-07T00:07:56.257Z,101469.16
2017-05-07T00:10:22.866Z,101466.63
2017-05-07T00:12:48.762Z,101470.19
2017-05-07T00:15:14.635Z,101471.11
2017-05-07T00:17:41.249Z,101471.86
2017-05-07T00:20:07.128Z,101473.46
2017-05-07T00:22:33.019Z,101471.17
2017-05-07T00:24:58.893Z,101469.08
2017-05-07T00:27:24.812Z,101477.60
2017-05-07T00:29:50.693Z,101470.47
2017-05-07T00:32:16.607Z,101470.70
2017-05-07T00:34:43.203Z,101474.06
2017-05-07T00:37:09.832Z,101474.78
2017-05-07T00:39:35.816Z,101480.27
2017-05-07T00:42:01.676Z,101480.53
2017-05-07T00:44:27.561Z,101475.37
2017-05-07T00:46:53.573Z,101478.42
2017-05-07T00:49:20.195Z,101483.44
2017-05-07T00:51:46.076Z,101480.22
2017-05-07T00:54:11.972Z,101483.48
2017-05-07T00:56:37.846Z,101480.27
2017-05-07T00:59:03.804Z,101486.62
2017-05-07T01:01:29.705Z,101484.80
2017-05-07T01:03:55.576Z,101491.53
2017-05-07T01:06:21.453Z,101493.32
2017-05-07T01:08:47.384Z,101497.06
2017-05-07T01:11:13.292Z,101498.86
2017-05-07T01:13:39.197Z,101500.80
2017-05-07T01:16:05.122Z,101503.88
2017-05-07T01:18:30.991Z,101500.77
2017-05-07T01:20:56.978Z,101506.33
2017-05-07T01:23:22.870Z,101505.70
2017-05-07T01:25:49.495Z,101507.61
2017-05-07T01:28:15.446Z,101513.69
2017-05-07T01:30:41.351Z,101511.14
2017-05-07T01:33:07.252Z,101524.01
2017-05-07T01:35:33.888Z,101518.73
2017-05-07T01:38:00.615Z,101514.09
2017-05-07T01:40:26.528Z,101512.45
2017-05-07T01:42:52.435Z,101518.84
2017-05-07T01:45:18.325Z,101520.44
2017-05-07T01:47:44.217Z,101524.95
2017-05-07T01:50:10.967Z,101531.72
2017-05-07T01:52:36.856Z,101532.21
2017-05-07T01:55:03.488Z,101525.27
2017-05-07T01:57:29.389Z,101532.93
2017-05-07T01:59:55.299Z,101526.09
2017-05-07T02:02:21.307Z,101524.41
2017-05-07T02:04:47.198Z,101525.27
2017-05-07T02:07:13.129Z,101530.08
2017-05-07T02:09:39.012Z,101530.70
2017-05-07T02:12:05.632Z,101528.59
2017-05-07T02:14:31.632Z,101535.22
2017-05-07T02:16:57.508Z,101535.33
2017-05-07T02:19:23.402Z,101539.96
2017-05-07T02:21:49.317Z,101537.09
2017-05-07T02:24:15.180Z,101539.97
2017-05-07T02:26:41.068Z,101541.25
2017-05-07T02:29:07.735Z,101542.48
2017-05-07T02:31:33.602Z,101541.43
2017-05-07T02:33:59.484Z,101547.03
2017-05-07T02:36:25.375Z,101545.07
2017-05-07T02:38:52.005Z,101548.37
2017-05-07T02:41:18.622Z,101548.02
2017-05-07T02:43:44.514Z,101547.24
2017-05-07T02:46:10.423Z,101555.15
2017-05-07T02:48:36.328Z,101546.30
2017-05-07T02:51:02.204Z,101546.34
2017-05-07T02:53:28.076Z,101547.66
2017-05-07T02:55:54.091Z,101552.13
2017-05-07T02:58:19.954Z,101549.22
2017-05-07T03:00:45.935Z,101544.48
2017-05-07T03:03:11.834Z,101545.03
2017-05-07T03:05:38.441Z,101552.30
2017-05-07T03:08:04.360Z,101544.41
2017-05-07T03:10:30.237Z,101550.08
2017-05-07T03:12:56.125Z,101553.20
2017-05-07T03:15:22.757Z,101556.23
2017-05-07T03:17:49.470Z,101553.10
2017-05-07T03:20:15.359Z,101557.72
2017-05-07T03:22:41.246Z,101556.95
2017-05-07T03:25:08.020Z,101562.17
2017-05-07T03:27:33.910Z,101560.09
2017-05-07T03:30:00.307Z,101569.11
2017-05-07T03:34:56.618Z,101574.31
2017-05-07T03:37:22.567Z,101577.73
2017-05-07T03:39:48.479Z,101577.73
2017-05-07T03:42:14.446Z,101573.54
2017-05-07T03:44:41.113Z,101570.32
2017-05-07T03:47:07.001Z,101571.35
2017-05-07T03:49:32.876Z,101572.09
2017-05-07T03:51:58.768Z,101574.34
2017-05-07T03:54:24.645Z,101571.89
2017-05-07T03:56:51.266Z,101573.91
2017-05-07T03:59:17.228Z,101574.75
2017-05-07T04:01:43.106Z,101578.44
2017-05-07T04:04:09.009Z,101572.23
2017-05-07T04:06:34.992Z,101576.22
2017-05-07T04:09:00.873Z,101582.61
2017-05-07T04:11:27.489Z,101585.06
2017-05-07T04:13:53.386Z,101584.35
2017-05-07T04:16:19.270Z,101582.47
2017-05-07T04:18:45.237Z,101592.58
2017-05-07T04:21:11.108Z,101589.72
2017-05-07T04:23:37.005Z,101595.80
2017-05-07T04:26:03.629Z,101598.02
2017-05-07T04:28:29.523Z,101596.50
2017-05-07T04:30:55.484Z,101604.50
2017-05-07T04:33:22.138Z,101612.72
2017-05-07T04:35:47.999Z,101613.70
2017-05-07T04:38:13.909Z,101618.09
2017-05-07T04:40:39.784Z,101625.72
2017-05-07T04:43:06.501Z,101624.52
2017-05-07T04:45:32.384Z,101616.00
2017-05-07T04:47:58.279Z,101624.14
2017-05-07T04:50:24.161Z,101625.85
2017-05-07T04:52:50.041Z,101629.17
2017-05-07T04:55:15.907Z,101627.47
2017-05-07T04:57:41.781Z,101635.98
2017-05-07T05:00:07.740Z,101643.09
2017-05-07T05:02:33.635Z,101650.06
2017-05-07T05:04:59.512Z,101654.78
2017-05-07T05:07:25.381Z,101653.63
2017-05-07T05:09:51.274Z,101659.16
2017-05-07T05:12:17.249Z,101659.66
2017-05-07T05:14:43.126Z,101656.34
2017-05-07T05:17:09.022Z,101663.78
2017-05-07T05:32:07.285Z,101671.64
2017-05-07T05:34:33.169Z,101681.15
2017-05-07T05:36:59.783Z,101680.53
2017-05-07T05:39:25.766Z,101681.23
2017-05-07T05:41:51.643Z,101684.18
2017-05-07T05:44:18.288Z,101688.55
2017-05-07T05:46:45.001Z,101692.19
2017-05-07T05:49:10.915Z,101696.28
2017-05-07T05:51:36.883Z,101700.12
2017-05-07T05:54:02.805Z,101707.34
2017-05-07T05:56:28.723Z,101708.13
2017-05-07T05:58:54.605Z,101697.95
2017-05-07T06:01:20.502Z,101703.79
2017-05-07T06:03:46.461Z,101701.37
2017-05-07T06:06:13.094Z,101706.55
2017-05-07T06:08:38.967Z,101709.00
2017-05-07T06:11:04.862Z,101713.58
2017-05-07T06:13:30.736Z,101714.09
2017-05-07T06:15:56.727Z,101715.22
2017-05-07T06:18:22.588Z,101713.32
2017-05-07T06:20:49.210Z,101718.61
2017-05-07T06:23:15.163Z,101723.53
2017-05-07T06:25:41.794Z,101725.59
2017-05-07T06:28:08.502Z,101727.16
2017-05-07T06:30:34.448Z,101735.36
2017-05-07T06:33:00.312Z,101742.47
2017-05-07T06:35:26.203Z,101749.50
2017-05-07T06:37:52.822Z,101750.38
2017-05-07T06:40:19.537Z,101752.47
2017-05-07T06:42:45.428Z,101752.30
2017-05-07T06:45:11.368Z,101752.09
2017-05-07T06:47:37.259Z,101759.45
2017-05-07T06:50:03.117Z,101760.20
2017-05-07T06:52:29.081Z,101755.45
2017-05-07T06:54:55.049Z,101755.63
2017-05-07T06:57:20.985Z,101760.62
2017-05-07T06:59:46.868Z,101766.02
2017-05-07T07:02:12.751Z,101767.11
2017-05-07T07:04:39.459Z,101771.20
2017-05-07T07:07:05.336Z,101775.14
2017-05-07T07:09:31.220Z,101784.66
2017-05-07T07:11:57.837Z,101779.27
2017-05-07T07:14:23.716Z,101776.37
2017-05-07T07:16:49.768Z,101782.23
2017-05-07T07:19:15.699Z,101777.47
2017-05-07T07:21:41.580Z,101781.44
2017-05-07T07:24:07.482Z,101783.66
2017-05-07T07:26:34.081Z,101783.23
2017-05-07T07:29:01.542Z,101784.61
2017-05-07T07:31:27.432Z,101789.20
2017-05-07T07:33:53.318Z,101793.34
2017-05-07T07:36:19.207Z,101793.64
2017-05-07T07:38:45.860Z,101798.65
2017-05-07T07:41:12.560Z,101801.56
2017-05-07T07:43:38.421Z,101805.58
2017-05-07T07:46:04.394Z,101811.95
2017-05-07T07:48:30.268Z,101810.23
2017-05-07T07:50:56.153Z,101812.63
2017-05-07T07:53:22.871Z,101813.98
2017-05-07T07:55:48.742Z,101814.39
2017-05-07T07:58:14.692Z,101819.05
2017-05-07T08:00:40.596Z,101817.98
2017-05-07T08:03:06.491Z,101815.29
2017-05-07T08:05:33.195Z,101817.78
2017-05-07T08:07:59.105Z,101819.48
2017-05-07T08:10:24.963Z,101822.48
2017-05-07T08:12:51.584Z,101820.05
2017-05-07T08:15:18.228Z,101825.15
2017-05-07T08:17:44.923Z,101827.19
2017-05-07T08:20:10.820Z,101833.28
2017-05-07T08:22:36.692Z,101833.36
2017-05-07T08:25:02.572Z,101834.43
2017-05-07T08:27:28.459Z,101842.59
2017-05-07T08:29:55.189Z,101843.69
2017-05-07T08:32:21.819Z,101847.74
2017-05-07T08:34:48.492Z,101843.66
2017-05-07T08:37:14.474Z,101857.16
2017-05-07T08:39:40.418Z,101853.21
2017-05-07T08:42:07.216Z,101857.44
2017-05-07T08:44:33.138Z,101854.70
2017-05-07T08:46:59.106Z,101861.91
2017-05-07T08:49:25.033Z,101861.70
2017-05-07T08:51:50.920Z,101862.98
2017-05-07T08:54:17.705Z,101871.45
2017-05-07T08:56:43.728Z,101874.08
2017-05-07T08:59:09.708Z,101874.11
2017-05-07T09:01:36.321Z,101878.90
2017-05-07T09:04:02.208Z,101882.45
2017-05-07T09:06:28.101Z,101878.29
2017-05-07T09:08:54.000Z,101878.76
2017-05-07T09:11:21.367Z,101886.66
2017-05-07T09:21:17.758Z,101901.27
2017-05-07T09:23:44.007Z,101904.22
2017-05-07T09:26:10.780Z,101906.56
2017-05-07T09:28:36.707Z,101902.64
2017-05-07T09:31:02.671Z,101909.88
2017-05-07T09:33:29.028Z,101915.90
2017-05-07T09:35:54.925Z,101917.59
2017-05-07T09:38:20.800Z,101917.26
2017-05-07T09:40:47.436Z,101918.88
2017-05-07T09:43:13.394Z,101922.12
2017-05-07T09:45:39.397Z,101936.88
2017-05-07T09:48:06.041Z,101931.27
2017-05-07T09:50:32.734Z,101932.77
2017-05-07T09:52:58.666Z,101942.12
2017-05-07T09:55:24.535Z,101936.50
2017-05-07T09:57:50.541Z,101936.58
2017-05-07T10:00:17.278Z,101938.06
2017-05-07T10:02:43.267Z,101934.33
2017-05-07T10:05:09.089Z,101930.53
2017-05-07T10:07:34.998Z,101936.62
2017-05-07T10:10:00.950Z,101933.22
2017-05-07T10:12:26.889Z,101935.19
2017-05-07T10:14:52.760Z,101939.75
2017-05-07T10:17:18.682Z,101942.56
2017-05-07T10:19:44.557Z,101944.72
2017-05-07T10:22:10.558Z,101942.52
2017-05-07T10:24:37.195Z,101939.97
2017-05-07T10:27:03.848Z,101950.41
2017-05-07T10:29:29.734Z,101954.59
2017-05-07T10:31:55.656Z,101952.97
2017-05-07T10:34:21.660Z,101947.33
2017-05-07T10:36:47.577Z,101946.91
2017-05-07T10:39:13.544Z,101948.91
2017-05-07T10:41:40.184Z,101955.87
2017-05-07T10:44:06.096Z,101958.73
2017-05-07T10:46:32.781Z,101958.40
2017-05-07T10:48:58.668Z,101955.50
2017-05-07T10:51:24.556Z,101958.59
2017-05-07T10:53:50.525Z,101956.00
2017-05-07T10:56:16.428Z,101955.18
2017-05-07T10:58:42.407Z,101965.03
2017-05-07T11:01:08.709Z,101967.26
2017-05-07T11:03:34.620Z,101966.66
2017-05-07T11:06:00.570Z,101965.77
2017-05-07T11:08:26.479Z,101963.75
2017-05-07T11:10:52.453Z,101970.11
2017-05-07T11:13:19.069Z,101968.56
2017-05-07T11:15:45.731Z,101970.48
2017-05-07T11:18:12.374Z,101967.95
2017-05-07T11:20:38.266Z,101965.95
2017-05-07T11:23:04.948Z,101969.23
2017-05-07T11:25:30.842Z,101970.31
2017-05-07T11:27:57.540Z,101966.99
2017-05-07T11:30:23.416Z,101971.58
2017-05-07T11:32:49.315Z,101966.63
2017-05-07T11:35:15.838Z,101969.13
2017-05-07T11:37:41.654Z,101970.75
2017-05-07T11:40:08.802Z,101970.64
2017-05-07T11:42:34.629Z,101965.13
2017-05-07T11:45:01.255Z,101965.25
2017-05-07T11:47:27.976Z,101965.19
2017-05-07T11:49:53.843Z,101962.80
2017-05-07T11:52:19.737Z,101967.55
2017-05-07T11:54:46.356Z,101972.20
2017-05-07T11:57:12.258Z,101964.85
2017-05-07T11:59:38.248Z,101962.97
2017-05-07T12:02:04.254Z,101956.41
2017-05-07T12:04:30.918Z,101955.16
2017-05-07T12:06:56.808Z,101961.22
2017-05-07T12:09:22.694Z,101959.08
2017-05-07T12:11:48.688Z,101957.34
2017-05-07T12:14:14.705Z,101958.67
2017-05-07T12:16:40.622Z,101959.66
2017-05-07T12:19:06.502Z,101957.10
2017-05-07T12:21:33.224Z,101962.54
2017-05-07T12:23:59.853Z,101962.00
2017-05-07T12:26:25.737Z,101967.39
2017-05-07T12:28:51.661Z,101964.75
2017-05-07T12:31:17.552Z,101964.59
2017-05-07T12:33:43.574Z,101967.30
2017-05-07T12:36:10.156Z,101965.02
2017-05-07T12:38:36.071Z,101965.33
2017-05-07T12:41:01.989Z,101964.41
2017-05-07T12:43:27.900Z,101971.47
2017-05-07T12:45:53.863Z,101963.20
2017-05-07T12:48:19.925Z,101972.06
2017-05-07T12:50:45.816Z,101969.52
2017-05-07T12:53:12.460Z,101968.42
2017-05-07T12:55:39.087Z,101967.57
2017-05-07T12:58:05.695Z,101967.20
2017-05-07T13:00:31.643Z,101963.20
2017-05-07T13:02:58.342Z,101961.59
2017-05-07T13:05:24.299Z,101967.89
2017-05-07T13:07:50.923Z,101971.06
2017-05-07T13:10:16.815Z,101963.61
2017-05-07T13:12:42.793Z,101975.69
2017-05-07T13:15:09.445Z,101976.50
2017-05-07T13:17:35.314Z,101975.34
2017-05-07T13:20:01.227Z,101983.53
2017-05-07T13:22:27.128Z,101983.67
2017-05-07T13:24:53.115Z,101974.98
2017-05-07T13:27:19.748Z,101980.38
2017-05-07T13:29:46.379Z,101983.69
2017-05-07T13:32:13.031Z,101978.58
2017-05-07T13:34:39.024Z,101982.73
2017-05-07T13:37:06.026Z,101984.59
2017-05-07T13:39:32.066Z,101987.75
2017-05-07T13:41:57.979Z,101986.85
2017-05-07T13:44:23.870Z,101990.19
2017-05-07T13:46:49.781Z,101991.02
2017-05-07T13:49:15.773Z,101983.38
2017-05-07T13:51:41.804Z,101982.02
